sensor_id;sensor_type;location;lat;lon;timestamp;pressure;altitude;pressure_sealevel;temperature;humidity
62164;BME280;48149;51.132;7.178;2023-02-12T00:00:47;100783.69;;;21.79;nan
62164;BME280;48149;51.132;7.178;2023-02-12T00:03:12;100782.41;;;21.81;nan
62164;BME280;48149;51.132;7.178;2023-02-12T00:05:38;100787.13;;;22.26;nan
62164;BME280;48149;51.132;7.178;2023-02-12T00:08:04;100782.84;;;22.53;nan
62164;BME280;48149;51.132;7.178;2023-02-12T00:10:29;100784.28;;;21.35;nan
62164;BME280;48149;51.132;7.178;2023-02-12T00:12:54;100782.31;;;21.76;nan
62164;BME280;48149;51.132;7.178;2023-02-12T00:15:20;100778.28;;;21.74;nan
62164;BME280;48149;51.132;7.178;2023-02-12T00:17:45;100781.03;;;21.91;nan
62164;BME280;48149;51.132;7.178;2023-02-12T00:20:10;100781.59;;;22.04;nan
62164;BME280;48149;51.132;7.178;2023-02-12T00:22:36;100776.47;;;22.14;nan
62164;BME280;48149;51.132;7.178;2023-02-12T00:25:01;100778.13;;;22.44;nan
62164;BME280;48149;51.132;7.178;2023-02-12T00:27:26;100774.66;;;22.43;nan
62164;BME280;48149;51.132;7.178;2023-02-12T00:29:52;100780.53;;;22.17;nan
62164;BME280;48149;51.132;7.178;2023-02-12T00:32:18;100772.94;;;22.37;nan
62164;BME280;48149;51.132;7.178;2023-02-12T00:34:46;100779.72;;;22.45;nan
62164;BME280;48149;51.132;7.178;2023-02-12T00:37:11;100785.66;;;22.47;nan
62164;BME280;48149;51.132;7.178;2023-02-12T00:39:37;100777.59;;;22.58;nan
62164;BME280;48149;51.132;7.178;2023-02-12T00:42:03;100772.69;;;20.76;nan
62164;BME280;48149;51.132;7.178;2023-02-12T00:44:28;100768.44;;;21.40;nan
62164;BME280;48149;51.132;7.178;2023-02-12T00:46:53;100777.44;;;22.08;nan
62164;BME280;48149;51.132;7.178;2023-02-12T00:49:18;100772.75;;;22.55;nan
62164;BME280;48149;51.132;7.178;2023-02-12T00:51:44;100768.22;;;22.56;nan
62164;BME280;48149;51.132;7.178;2023-02-12T00:54:09;100765.16;;;22.36;nan
62164;BME280;48149;51.132;7.178;2023-02-12T00:56:34;100770.06;;;22.27;nan
62164;BME280;48149;51.132;7.178;2023-02-12T00:59:00;100771.78;;;20.52;nan
62164;BME280;48149;51.132;7.178;2023-02-12T01:01:25;100770.03;;;21.87;nan
62164;BME280;48149;51.132;7.178;2023-02-12T01:03:50;100773.09;;;20.32;nan
62164;BME280;48149;51.132;7.178;2023-02-12T01:06:15;100769.09;;;20.70;nan
62164;BME280;48149;51.132;7.178;2023-02-12T01:08:41;100770.00;;;22.39;nan
62164;BME280;48149;51.132;7.178;2023-02-12T01:11:06;100776.22;;;22.27;nan
62164;BME280;48149;51.132;7.178;2023-02-12T01:13:31;100766.91;;;21.67;nan
62164;BME280;48149;51.132;7.178;2023-02-12T01:16:04;100762.50;;;20.43;nan
62164;BME280;48149;51.132;7.178;2023-02-12T01:18:32;100763.47;;;20.90;nan
62164;BME280;48149;51.132;7.178;2023-02-12T01:20:57;100766.22;;;21.48;nan
62164;BME280;48149;51.132;7.178;2023-02-12T01:23:23;100770.97;;;21.11;nan
62164;BME280;48149;51.132;7.178;2023-02-12T01:25:48;100766.78;;;21.15;nan
62164;BME280;48149;51.132;7.178;2023-02-12T01:28:13;100763.44;;;21.55;nan
62164;BME280;48149;51.132;7.178;2023-02-12T01:30:38;100763.31;;;21.73;nan
62164;BME280;48149;51.132;7.178;2023-02-12T01:33:03;100761.47;;;21.73;nan
62164;BME280;48149;51.132;7.178;2023-02-12T01:35:29;100765.03;;;21.91;nan
62164;BME280;48149;51.132;7.178;2023-02-12T01:37:54;100767.00;;;21.72;nan
62164;BME280;48149;51.132;7.178;2023-02-12T01:40:19;100762.25;;;20.74;nan
62164;BME280;48149;51.132;7.178;2023-02-12T01:42:45;100764.97;;;20.56;nan
62164;BME280;48149;51.132;7.178;2023-02-12T01:47:39;100763.72;;;21.00;nan
62164;BME280;48149;51.132;7.178;2023-02-12T01:50:08;100761.69;;;20.72;nan
62164;BME280;48149;51.132;7.178;2023-02-12T01:52:36;100757.47;;;21.06;nan
62164;BME280;48149;51.132;7.178;2023-02-12T01:55:03;100760.91;;;19.88;nan
62164;BME280;48149;51.132;7.178;2023-02-12T01:57:30;100767.47;;;20.03;nan
62164;BME280;48149;51.132;7.178;2023-02-12T01:59:56;100763.94;;;20.09;nan
62164;BME280;48149;51.132;7.178;2023-02-12T02:02:22;100754.31;;;20.45;nan
62164;BME280;48149;51.132;7.178;2023-02-12T02:04:49;100761.69;;;20.72;nan
62164;BME280;48149;51.132;7.178;2023-02-12T02:07:16;100758.22;;;20.24;nan
62164;BME280;48149;51.132;7.178;2023-02-12T02:09:41;100752.69;;;20.85;nan
62164;BME280;48149;51.132;7.178;2023-02-12T02:12:07;100759.34;;;20.35;nan
62164;BME280;48149;51.132;7.178;2023-02-12T02:14:51;100756.97;;;20.86;nan
62164;BME280;48149;51.132;7.178;2023-02-12T02:25:25;100749.56;;;20.88;nan
62164;BME280;48149;51.132;7.178;2023-02-12T02:28:10;100752.03;;;21.01;nan
62164;BME280;48149;51.132;7.178;2023-02-12T02:38:44;100753.78;;;21.07;nan
62164;BME280;48149;51.132;7.178;2023-02-12T02:43:46;100751.06;;;19.52;nan
62164;BME280;48149;51.132;7.178;2023-02-12T02:48:51;100747.56;;;19.51;nan
62164;BME280;48149;51.132;7.178;2023-02-12T02:51:19;100749.56;;;20.88;nan
62164;BME280;48149;51.132;7.178;2023-02-12T02:56:29;100752.78;;;21.20;nan
62164;BME280;48149;51.132;7.178;2023-02-12T02:59:30;100748.66;;;20.53;nan
62164;BME280;48149;51.132;7.178;2023-02-12T03:01:53;100752.31;;;20.70;nan
62164;BME280;48149;51.132;7.178;2023-02-12T03:04:35;100741.66;;;20.70;nan
62164;BME280;48149;51.132;7.178;2023-02-12T03:07:08;100751.03;;;20.43;nan
62164;BME280;48149;51.132;7.178;2023-02-12T03:09:53;100747.94;;;20.46;nan
62164;BME280;48149;51.132;7.178;2023-02-12T03:12:22;100747.16;;;20.57;nan
62164;BME280;48149;51.132;7.178;2023-02-12T03:14:55;100738.47;;;20.50;nan
62164;BME280;48149;51.132;7.178;2023-02-12T03:17:24;100742.03;;;20.44;nan
62164;BME280;48149;51.132;7.178;2023-02-12T03:19:52;100743.47;;;19.55;nan
62164;BME280;48149;51.132;7.178;2023-02-12T03:22:21;100731.25;;;19.48;nan
62164;BME280;48149;51.132;7.178;2023-02-12T03:24:48;100747.44;;;20.37;nan
62164;BME280;48149;51.132;7.178;2023-02-12T03:29:43;100739.03;;;20.52;nan
62164;BME280;48149;51.132;7.178;2023-02-12T03:32:17;100742.94;;;20.38;nan
62164;BME280;48149;51.132;7.178;2023-02-12T03:34:52;100743.22;;;20.48;nan
62164;BME280;48149;51.132;7.178;2023-02-12T03:37:29;100738.44;;;20.02;nan
62164;BME280;48149;51.132;7.178;2023-02-12T03:39:59;100730.38;;;20.56;nan
62164;BME280;48149;51.132;7.178;2023-02-12T03:42:34;100727.06;;;20.61;nan
62164;BME280;48149;51.132;7.178;2023-02-12T03:46:05;100739.47;;;20.79;nan
62164;BME280;48149;51.132;7.178;2023-02-12T03:50:35;100734.31;;;20.95;nan
62164;BME280;48149;51.132;7.178;2023-02-12T03:53:03;100733.59;;;20.47;nan
62164;BME280;48149;51.132;7.178;2023-02-12T03:55:29;100729.81;;;20.54;nan
62164;BME280;48149;51.132;7.178;2023-02-12T03:57:57;100739.66;;;20.65;nan
62164;BME280;48149;51.132;7.178;2023-02-12T04:00:24;100733.25;;;20.96;nan
62164;BME280;48149;51.132;7.178;2023-02-12T04:02:50;100739.69;;;20.77;nan
62164;BME280;48149;51.132;7.178;2023-02-12T04:05:20;100744.13;;;20.05;nan
62164;BME280;48149;51.132;7.178;2023-02-12T04:07:45;100738.44;;;20.38;nan
62164;BME280;48149;51.132;7.178;2023-02-12T04:10:10;100746.03;;;20.35;nan
62164;BME280;48149;51.132;7.178;2023-02-12T04:17:43;100742.25;;;19.51;nan
62164;BME280;48149;51.132;7.178;2023-02-12T04:27:46;100756.41;;;20.06;nan
62164;BME280;48149;51.132;7.178;2023-02-12T04:30:17;100755.16;;;20.57;nan
62164;BME280;48149;51.132;7.178;2023-02-12T04:35:20;100757.06;;;21.33;nan
62164;BME280;48149;51.132;7.178;2023-02-12T04:37:51;100762.44;;;21.03;nan
62164;BME280;48149;51.132;7.178;2023-02-12T04:40:19;100767.09;;;20.96;nan
62164;BME280;48149;51.132;7.178;2023-02-12T04:42:46;100764.34;;;21.25;nan
62164;BME280;48149;51.132;7.178;2023-02-12T04:45:12;100768.09;;;21.36;nan
62164;BME280;48149;51.132;7.178;2023-02-12T04:47:38;100778.97;;;21.23;nan
62164;BME280;48149;51.132;7.178;2023-02-12T04:50:03;100776.00;;;21.01;nan
62164;BME280;48149;51.132;7.178;2023-02-12T04:52:29;100771.38;;;21.08;nan
62164;BME280;48149;51.132;7.178;2023-02-12T04:54:54;100774.81;;;20.97;nan
62164;BME280;48149;51.132;7.178;2023-02-12T04:57:19;100779.22;;;21.03;nan
62164;BME280;48149;51.132;7.178;2023-02-12T04:59:44;100774.25;;;20.54;nan
62164;BME280;48149;51.132;7.178;2023-02-12T05:02:10;100778.16;;;20.93;nan
62164;BME280;48149;51.132;7.178;2023-02-12T05:04:35;100781.63;;;20.93;nan
62164;BME280;48149;51.132;7.178;2023-02-12T05:07:00;100777.88;;;21.12;nan
62164;BME280;48149;51.132;7.178;2023-02-12T05:09:25;100787.66;;;20.59;nan
62164;BME280;48149;51.132;7.178;2023-02-12T05:11:50;100783.59;;;20.86;nan
62164;BME280;48149;51.132;7.178;2023-02-12T05:14:16;100777.09;;;21.47;nan
62164;BME280;48149;51.132;7.178;2023-02-12T05:16:41;100774.81;;;21.62;nan
62164;BME280;48149;51.132;7.178;2023-02-12T05:19:06;100778.38;;;21.56;nan
62164;BME280;48149;51.132;7.178;2023-02-12T05:21:33;100776.41;;;21.63;nan
62164;BME280;48149;51.132;7.178;2023-02-12T05:23:59;100783.81;;;21.26;nan
62164;BME280;48149;51.132;7.178;2023-02-12T05:26:25;100780.69;;;21.41;nan
62164;BME280;48149;51.132;7.178;2023-02-12T05:28:50;100779.88;;;20.87;nan
62164;BME280;48149;51.132;7.178;2023-02-12T05:31:16;100792.66;;;20.97;nan
62164;BME280;48149;51.132;7.178;2023-02-12T05:33:42;100783.13;;;21.31;nan
62164;BME280;48149;51.132;7.178;2023-02-12T05:36:12;100793.31;;;21.68;nan
62164;BME280;48149;51.132;7.178;2023-02-12T05:38:37;100794.03;;;21.29;nan
62164;BME280;48149;51.132;7.178;2023-02-12T05:41:03;100787.13;;;20.68;nan
62164;BME280;48149;51.132;7.178;2023-02-12T05:43:29;100787.59;;;20.77;nan
62164;BME280;48149;51.132;7.178;2023-02-12T05:45:54;100788.59;;;21.59;nan
62164;BME280;48149;51.132;7.178;2023-02-12T05:48:19;100796.91;;;22.09;nan
62164;BME280;48149;51.132;7.178;2023-02-12T05:50:44;100794.03;;;21.29;nan
62164;BME280;48149;51.132;7.178;2023-02-12T05:53:09;100801.50;;;20.67;nan
62164;BME280;48149;51.132;7.178;2023-02-12T05:55:35;100799.81;;;21.26;nan
62164;BME280;48149;51.132;7.178;2023-02-12T05:58:00;100798.53;;;20.87;nan
62164;BME280;48149;51.132;7.178;2023-02-12T06:00:25;100795.88;;;21.63;nan
62164;BME280;48149;51.132;7.178;2023-02-12T06:02:50;100801.69;;;21.49;nan
62164;BME280;48149;51.132;7.178;2023-02-12T06:05:15;100807.94;;;21.43;nan
62164;BME280;48149;51.132;7.178;2023-02-12T06:07:41;100799.72;;;21.03;nan
62164;BME280;48149;51.132;7.178;2023-02-12T06:10:06;100801.84;;;21.12;nan
62164;BME280;48149;51.132;7.178;2023-02-12T06:12:31;100795.56;;;20.95;nan
62164;BME280;48149;51.132;7.178;2023-02-12T06:14:57;100798.78;;;19.83;nan
62164;BME280;48149;51.132;7.178;2023-02-12T06:17:22;100797.91;;;19.46;nan
62164;BME280;48149;51.132;7.178;2023-02-12T06:19:47;100796.31;;;20.84;nan
62164;BME280;48149;51.132;7.178;2023-02-12T06:22:12;100792.63;;;20.85;nan
62164;BME280;48149;51.132;7.178;2023-02-12T06:24:37;100791.63;;;20.68;nan
62164;BME280;48149;51.132;7.178;2023-02-12T06:27:03;100795.25;;;20.44;nan
62164;BME280;48149;51.132;7.178;2023-02-12T06:29:28;100787.34;;;20.37;nan
62164;BME280;48149;51.132;7.178;2023-02-12T06:31:53;100793.69;;;20.36;nan
62164;BME280;48149;51.132;7.178;2023-02-12T06:34:19;100792.84;;;18.31;nan
62164;BME280;48149;51.132;7.178;2023-02-12T06:36:44;100796.09;;;18.53;nan
62164;BME280;48149;51.132;7.178;2023-02-12T06:39:10;100789.91;;;19.89;nan
62164;BME280;48149;51.132;7.178;2023-02-12T06:41:36;100790.31;;;20.89;nan
62164;BME280;48149;51.132;7.178;2023-02-12T06:44:02;100799.03;;;20.66;nan
62164;BME280;48149;51.132;7.178;2023-02-12T06:46:27;100811.03;;;20.57;nan
62164;BME280;48149;51.132;7.178;2023-02-12T06:48:53;100805.84;;;19.22;nan
62164;BME280;48149;51.132;7.178;2023-02-12T06:51:19;100810.88;;;19.30;nan
62164;BME280;48149;51.132;7.178;2023-02-12T06:53:46;100809.88;;;19.55;nan
62164;BME280;48149;51.132;7.178;2023-02-12T06:56:11;100817.25;;;19.78;nan
62164;BME280;48149;51.132;7.178;2023-02-12T06:58:38;100813.38;;;20.35;nan
62164;BME280;48149;51.132;7.178;2023-02-12T07:01:10;100808.88;;;20.95;nan
62164;BME280;48149;51.132;7.178;2023-02-12T07:03:38;100821.09;;;20.18;nan
62164;BME280;48149;51.132;7.178;2023-02-12T07:06:03;100828.31;;;20.66;nan
62164;BME280;48149;51.132;7.178;2023-02-12T07:08:28;100826.75;;;20.77;nan
62164;BME280;48149;51.132;7.178;2023-02-12T07:10:53;100825.81;;;20.53;nan
62164;BME280;48149;51.132;7.178;2023-02-12T07:13:19;100833.25;;;20.33;nan
62164;BME280;48149;51.132;7.178;2023-02-12T07:15:44;100832.66;;;20.79;nan
62164;BME280;48149;51.132;7.178;2023-02-12T07:18:09;100826.66;;;20.83;nan
62164;BME280;48149;51.132;7.178;2023-02-12T07:20:34;100833.50;;;20.24;nan
62164;BME280;48149;51.132;7.178;2023-02-12T07:23:00;100837.56;;;20.93;nan
62164;BME280;48149;51.132;7.178;2023-02-12T07:25:25;100832.97;;;21.42;nan
62164;BME280;48149;51.132;7.178;2023-02-12T07:27:50;100833.63;;;21.25;nan
62164;BME280;48149;51.132;7.178;2023-02-12T07:30:16;100831.34;;;21.52;nan
62164;BME280;48149;51.132;7.178;2023-02-12T07:32:41;100833.25;;;21.10;nan
62164;BME280;48149;51.132;7.178;2023-02-12T07:35:06;100834.81;;;21.41;nan
62164;BME280;48149;51.132;7.178;2023-02-12T07:37:32;100839.25;;;21.70;nan
62164;BME280;48149;51.132;7.178;2023-02-12T07:39:57;100834.81;;;21.53;nan
62164;BME280;48149;51.132;7.178;2023-02-12T07:42:23;100839.97;;;21.13;nan
62164;BME280;48149;51.132;7.178;2023-02-12T07:44:48;100838.78;;;21.73;nan
62164;BME280;48149;51.132;7.178;2023-02-12T07:47:14;100850.94;;;22.27;nan
62164;BME280;48149;51.132;7.178;2023-02-12T07:49:39;100855.22;;;22.17;nan
62164;BME280;48149;51.132;7.178;2023-02-12T07:52:05;100849.00;;;22.00;nan
62164;BME280;48149;51.132;7.178;2023-02-12T07:54:30;100846.16;;;21.37;nan
62164;BME280;48149;51.132;7.178;2023-02-12T07:56:55;100852.22;;;21.55;nan
62164;BME280;48149;51.132;7.178;2023-02-12T07:59:20;100847.22;;;21.82;nan
62164;BME280;48149;51.132;7.178;2023-02-12T08:01:47;100855.28;;;21.17;nan
62164;BME280;48149;51.132;7.178;2023-02-12T08:04:13;100854.25;;;21.00;nan
62164;BME280;48149;51.132;7.178;2023-02-12T08:06:40;100854.72;;;20.49;nan
62164;BME280;48149;51.132;7.178;2023-02-12T08:09:06;100856.53;;;20.85;nan
62164;BME280;48149;51.132;7.178;2023-02-12T08:11:33;100866.19;;;20.98;nan
62164;BME280;48149;51.132;7.178;2023-02-12T08:13:59;100860.03;;;19.95;nan
62164;BME280;48149;51.132;7.178;2023-02-12T08:16:25;100862.06;;;20.36;nan
62164;BME280;48149;51.132;7.178;2023-02-12T08:18:51;100867.25;;;20.24;nan
62164;BME280;48149;51.132;7.178;2023-02-12T08:21:17;100872.22;;;21.05;nan
62164;BME280;48149;51.132;7.178;2023-02-12T08:23:42;100869.59;;;21.58;nan
62164;BME280;48149;51.132;7.178;2023-02-12T08:28:33;100870.66;;;22.03;nan
62164;BME280;48149;51.132;7.178;2023-02-12T08:31:02;100874.22;;;21.62;nan
62164;BME280;48149;51.132;7.178;2023-02-12T08:33:29;100883.06;;;20.92;nan
62164;BME280;48149;51.132;7.178;2023-02-12T08:36:04;100875.50;;;21.60;nan
62164;BME280;48149;51.132;7.178;2023-02-12T08:38:30;100874.69;;;21.48;nan
62164;BME280;48149;51.132;7.178;2023-02-12T08:40:55;100879.63;;;21.33;nan
62164;BME280;48149;51.132;7.178;2023-02-12T08:43:24;100887.34;;;22.33;nan
62164;BME280;48149;51.132;7.178;2023-02-12T08:45:49;100884.56;;;22.28;nan
62164;BME280;48149;51.132;7.178;2023-02-12T08:48:14;100885.66;;;21.93;nan
62164;BME280;48149;51.132;7.178;2023-02-12T08:50:39;100884.00;;;21.92;nan
62164;BME280;48149;51.132;7.178;2023-02-12T08:53:05;100882.41;;;22.02;nan
62164;BME280;48149;51.132;7.178;2023-02-12T08:55:31;100877.38;;;21.83;nan
62164;BME280;48149;51.132;7.178;2023-02-12T08:57:56;100886.25;;;21.30;nan
62164;BME280;48149;51.132;7.178;2023-02-12T09:00:22;100879.25;;;21.94;nan
62164;BME280;48149;51.132;7.178;2023-02-12T09:02:47;100881.72;;;20.35;nan
62164;BME280;48149;51.132;7.178;2023-02-12T09:05:12;100876.31;;;21.72;nan
62164;BME280;48149;51.132;7.178;2023-02-12T09:07:38;100884.13;;;22.08;nan
62164;BME280;48149;51.132;7.178;2023-02-12T09:10:03;100890.91;;;21.58;nan
62164;BME280;48149;51.132;7.178;2023-02-12T09:12:28;100888.03;;;22.29;nan
62164;BME280;48149;51.132;7.178;2023-02-12T09:14:53;100884.66;;;21.52;nan
62164;BME280;48149;51.132;7.178;2023-02-12T09:17:19;100893.41;;;21.94;nan
62164;BME280;48149;51.132;7.178;2023-02-12T09:19:44;100897.47;;;22.60;nan
62164;BME280;48149;51.132;7.178;2023-02-12T09:22:09;100890.31;;;21.56;nan
62164;BME280;48149;51.132;7.178;2023-02-12T09:24:35;100885.34;;;21.59;nan
62164;BME280;48149;51.132;7.178;2023-02-12T09:27:01;100888.66;;;21.96;nan
62164;BME280;48149;51.132;7.178;2023-02-12T09:29:26;100894.19;;;22.06;nan
62164;BME280;48149;51.132;7.178;2023-02-12T09:31:52;100897.38;;;22.78;nan
62164;BME280;48149;51.132;7.178;2023-02-12T09:34:17;100896.84;;;22.93;nan
62164;BME280;48149;51.132;7.178;2023-02-12T09:36:42;100900.81;;;21.80;nan
62164;BME280;48149;51.132;7.178;2023-02-12T09:39:07;100906.03;;;21.87;nan
62164;BME280;48149;51.132;7.178;2023-02-12T09:46:36;100899.09;;;23.12;nan
62164;BME280;48149;51.132;7.178;2023-02-12T09:49:20;100893.75;;;21.98;nan
62164;BME280;48149;51.132;7.178;2023-02-12T09:51:47;100891.91;;;23.01;nan
62164;BME280;48149;51.132;7.178;2023-02-12T09:54:16;100900.13;;;22.83;nan
62164;BME280;48149;51.132;7.178;2023-02-12T09:56:43;100894.72;;;22.95;nan
62164;BME280;48149;51.132;7.178;2023-02-12T09:59:10;100901.16;;;22.82;nan
62164;BME280;48149;51.132;7.178;2023-02-12T10:01:38;100892.41;;;23.93;nan
62164;BME280;48149;51.132;7.178;2023-02-12T10:04:03;100893.16;;;22.82;nan
62164;BME280;48149;51.132;7.178;2023-02-12T10:06:30;100900.44;;;23.93;nan
62164;BME280;48149;51.132;7.178;2023-02-12T10:08:58;100903.81;;;22.94;nan
62164;BME280;48149;51.132;7.178;2023-02-12T10:11:35;100913.66;;;23.21;nan
62164;BME280;48149;51.132;7.178;2023-02-12T10:19:20;100904.13;;;24.85;nan
62164;BME280;48149;51.132;7.178;2023-02-12T10:21:54;100906.22;;;25.05;nan
62164;BME280;48149;51.132;7.178;2023-02-12T10:26:58;100901.97;;;24.06;nan
62164;BME280;48149;51.132;7.178;2023-02-12T10:29:26;100911.47;;;23.80;nan
62164;BME280;48149;51.132;7.178;2023-02-12T10:32:22;100900.38;;;23.71;nan
62164;BME280;48149;51.132;7.178;2023-02-12T10:34:40;100895.66;;;23.00;nan
62164;BME280;48149;51.132;7.178;2023-02-12T10:39:41;100899.72;;;23.64;nan
62164;BME280;48149;51.132;7.178;2023-02-12T10:44:37;100895.66;;;22.72;nan
62164;BME280;48149;51.132;7.178;2023-02-12T10:47:02;100892.31;;;22.93;nan
62164;BME280;48149;51.132;7.178;2023-02-12T10:49:29;100884.69;;;23.97;nan
62164;BME280;48149;51.132;7.178;2023-02-12T10:52:42;100882.50;;;24.10;nan
62164;BME280;48149;51.132;7.178;2023-02-12T10:54:41;100892.72;;;23.02;nan
62164;BME280;48149;51.132;7.178;2023-02-12T10:59:36;100892.09;;;23.40;nan
62164;BME280;48149;51.132;7.178;2023-02-12T11:02:02;100879.72;;;24.05;nan
62164;BME280;48149;51.132;7.178;2023-02-12T11:04:28;100886.25;;;21.42;nan
62164;BME280;48149;51.132;7.178;2023-02-12T11:06:55;100877.66;;;21.93;nan
62164;BME280;48149;51.132;7.178;2023-02-12T11:09:29;100884.91;;;22.44;nan
62164;BME280;48149;51.132;7.178;2023-02-12T11:11:54;100888.03;;;23.70;nan
62164;BME280;48149;51.132;7.178;2023-02-12T11:14:19;100886.06;;;23.99;nan
62164;BME280;48149;51.132;7.178;2023-02-12T11:19:18;100879.47;;;23.85;nan
62164;BME280;48149;51.132;7.178;2023-02-12T11:21:44;100872.50;;;22.77;nan
62164;BME280;48149;51.132;7.178;2023-02-12T11:26:50;100878.56;;;23.01;nan
62164;BME280;48149;51.132;7.178;2023-02-12T11:29:20;100881.69;;;24.26;nan
62164;BME280;48149;51.132;7.178;2023-02-12T11:31:59;100874.16;;;22.95;nan
62164;BME280;48149;51.132;7.178;2023-02-12T11:34:25;100868.59;;;23.92;nan
62164;BME280;48149;51.132;7.178;2023-02-12T11:36:51;100864.59;;;23.27;nan
62164;BME280;48149;51.132;7.178;2023-02-12T11:39:33;100857.75;;;23.48;nan
62164;BME280;48149;51.132;7.178;2023-02-12T11:44:48;100858.81;;;24.62;nan
62164;BME280;48149;51.132;7.178;2023-02-12T11:47:24;100854.41;;;24.29;nan
62164;BME280;48149;51.132;7.178;2023-02-12T11:50:03;100855.28;;;23.80;nan
62164;BME280;48149;51.132;7.178;2023-02-12T11:52:30;100851.22;;;22.66;nan
62164;BME280;48149;51.132;7.178;2023-02-12T11:54:58;100851.59;;;24.19;nan
62164;BME280;48149;51.132;7.178;2023-02-12T11:57:33;100850.38;;;23.72;nan
62164;BME280;48149;51.132;7.178;2023-02-12T11:59:59;100856.50;;;22.77;nan
62164;BME280;48149;51.132;7.178;2023-02-12T12:02:32;100854.63;;;22.78;nan
62164;BME280;48149;51.132;7.178;2023-02-12T12:05:07;100847.81;;;23.60;nan
62164;BME280;48149;51.132;7.178;2023-02-12T12:07:35;100852.88;;;22.32;nan
62164;BME280;48149;51.132;7.178;2023-02-12T12:10:19;100844.56;;;23.42;nan
62164;BME280;48149;51.132;7.178;2023-02-12T12:12:49;100843.06;;;22.89;nan
62164;BME280;48149;51.132;7.178;2023-02-12T12:15:23;100837.38;;;21.71;nan
62164;BME280;48149;51.132;7.178;2023-02-12T12:18:14;100839.69;;;22.94;nan
62164;BME280;48149;51.132;7.178;2023-02-12T12:23:48;100835.16;;;24.54;nan
62164;BME280;48149;51.132;7.178;2023-02-12T12:26:21;100832.69;;;24.26;nan
62164;BME280;48149;51.132;7.178;2023-02-12T12:31:21;100820.53;;;24.18;nan
62164;BME280;48149;51.132;7.178;2023-02-12T12:34:01;100822.06;;;21.66;nan
62164;BME280;48149;51.132;7.178;2023-02-12T12:39:02;100817.13;;;24.06;nan
62164;BME280;48149;51.132;7.178;2023-02-12T12:41:37;100807.38;;;25.14;nan
62164;BME280;48149;51.132;7.178;2023-02-12T12:53:06;100795.88;;;25.18;nan
62164;BME280;48149;51.132;7.178;2023-02-12T13:00:27;100789.03;;;22.02;nan
62164;BME280;48149;51.132;7.178;2023-02-12T13:08:29;100768.59;;;25.63;nan
62164;BME280;48149;51.132;7.178;2023-02-12T13:11:01;100770.13;;;22.04;nan
62164;BME280;48149;51.132;7.178;2023-02-12T13:16:29;100759.41;;;23.88;nan
62164;BME280;48149;51.132;7.178;2023-02-12T13:26:54;100766.69;;;24.90;nan
62164;BME280;48149;51.132;7.178;2023-02-12T13:29:34;100774.66;;;25.95;nan
62164;BME280;48149;51.132;7.178;2023-02-12T13:32:02;100766.75;;;24.41;nan
62164;BME280;48149;51.132;7.178;2023-02-12T13:34:29;100769.63;;;24.13;nan
62164;BME280;48149;51.132;7.178;2023-02-12T13:36:56;100761.19;;;25.02;nan
62164;BME280;48149;51.132;7.178;2023-02-12T13:41:59;100758.50;;;25.02;nan
62164;BME280;48149;51.132;7.178;2023-02-12T13:44:28;100758.47;;;25.33;nan
62164;BME280;48149;51.132;7.178;2023-02-12T13:50:22;100755.72;;;25.23;nan
62164;BME280;48149;51.132;7.178;2023-02-12T14:03:26;100749.75;;;24.31;nan
62164;BME280;48149;51.132;7.178;2023-02-12T14:08:37;100745.38;;;24.47;nan
62164;BME280;48149;51.132;7.178;2023-02-12T14:11:06;100740.84;;;25.47;nan
62164;BME280;48149;51.132;7.178;2023-02-12T14:13:32;100752.44;;;24.58;nan
62164;BME280;48149;51.132;7.178;2023-02-12T14:16:17;100744.56;;;25.41;nan
62164;BME280;48149;51.132;7.178;2023-02-12T14:18:43;100740.25;;;25.35;nan
62164;BME280;48149;51.132;7.178;2023-02-12T14:23:42;100746.75;;;24.27;nan
62164;BME280;48149;51.132;7.178;2023-02-12T14:26:18;100740.28;;;24.02;nan
62164;BME280;48149;51.132;7.178;2023-02-12T14:33:44;100747.22;;;23.98;nan
62164;BME280;48149;51.132;7.178;2023-02-12T14:36:14;100745.09;;;24.21;nan
62164;BME280;48149;51.132;7.178;2023-02-12T14:41:22;100748.50;;;24.65;nan
62164;BME280;48149;51.132;7.178;2023-02-12T14:46:51;100752.00;;;25.29;nan
62164;BME280;48149;51.132;7.178;2023-02-12T14:57:01;100740.66;;;24.32;nan
62164;BME280;48149;51.132;7.178;2023-02-12T14:59:29;100746.56;;;24.34;nan
62164;BME280;48149;51.132;7.178;2023-02-12T15:01:57;100742.41;;;24.00;nan
62164;BME280;48149;51.132;7.178;2023-02-12T15:04:24;100740.28;;;24.02;nan
62164;BME280;48149;51.132;7.178;2023-02-12T15:06:51;100746.00;;;24.59;nan
62164;BME280;48149;51.132;7.178;2023-02-12T15:09:22;100744.72;;;23.53;nan
62164;BME280;48149;51.132;7.178;2023-02-12T15:14:35;100740.69;;;22.83;nan
62164;BME280;48149;51.132;7.178;2023-02-12T15:17:12;100748.19;;;22.42;nan
62164;BME280;48149;51.132;7.178;2023-02-12T15:19:48;100738.06;;;21.64;nan
62164;BME280;48149;51.132;7.178;2023-02-12T15:22:17;100734.22;;;22.96;nan
62164;BME280;48149;51.132;7.178;2023-02-12T15:24:43;100739.91;;;23.71;nan
62164;BME280;48149;51.132;7.178;2023-02-12T15:27:10;100727.66;;;23.97;nan
62164;BME280;48149;51.132;7.178;2023-02-12T15:29:41;100730.78;;;24.32;nan
62164;BME280;48149;51.132;7.178;2023-02-12T15:32:08;100726.31;;;23.73;nan
62164;BME280;48149;51.132;7.178;2023-02-12T15:34:38;100723.38;;;23.19;nan
62164;BME280;48149;51.132;7.178;2023-02-12T15:37:05;100724.63;;;22.10;nan
62164;BME280;48149;51.132;7.178;2023-02-12T15:39:42;100719.72;;;22.92;nan
62164;BME280;48149;51.132;7.178;2023-02-12T15:42:24;100726.41;;;22.33;nan
62164;BME280;48149;51.132;7.178;2023-02-12T15:44:49;100718.88;;;24.50;nan
62164;BME280;48149;51.132;7.178;2023-02-12T15:47:15;100718.00;;;23.53;nan
62164;BME280;48149;51.132;7.178;2023-02-12T15:49:41;100719.97;;;23.07;nan
62164;BME280;48149;51.132;7.178;2023-02-12T15:54:35;100722.97;;;23.27;nan